sensor_id;sensor_type;location;lat;lon;timestamp;temperature;humidity
52943;DHT22;38809;53.300;6.614;2023-08-06T00:00:22;14.00;99.90
52943;DHT22;38809;53.300;6.614;2023-08-06T00:02:47;13.90;99.90
52943;DHT22;38809;53.300;6.614;2023-08-06T00:05:13;14.00;99.90
52943;DHT22;38809;53.300;6.614;2023-08-06T00:07:43;13.90;99.90
52943;DHT22;38809;53.300;6.614;2023-08-06T00:10:09;13.90;99.90
52943;DHT22;38809;53.300;6.614;2023-08-06T00:12:35;13.90;99.90
52943;DHT22;38809;53.300;6.614;2023-08-06T00:15:01;14.00;99.90
52943;DHT22;38809;53.300;6.614;2023-08-06T00:17:26;14.00;99.90
52943;DHT22;38809;53.300;6.614;2023-08-06T00:19:52;14.00;99.90
52943;DHT22;38809;53.300;6.614;2023-08-06T00:22:18;14.00;99.90
52943;DHT22;38809;53.300;6.614;2023-08-06T00:24:43;14.00;99.90
52943;DHT22;38809;53.300;6.614;2023-08-06T00:27:09;14.00;99.90
52943;DHT22;38809;53.300;6.614;2023-08-06T00:29:35;14.00;99.90
52943;DHT22;38809;53.300;6.614;2023-08-06T00:32:00;14.00;99.90
52943;DHT22;38809;53.300;6.614;2023-08-06T00:34:26;14.00;99.90
52943;DHT22;38809;53.300;6.614;2023-08-06T00:36:52;14.00;99.90
52943;DHT22;38809;53.300;6.614;2023-08-06T00:39:19;14.00;99.90
52943;DHT22;38809;53.300;6.614;2023-08-06T00:41:45;14.00;99.90
52943;DHT22;38809;53.300;6.614;2023-08-06T00:44:10;14.00;99.90
52943;DHT22;38809;53.300;6.614;2023-08-06T00:46:36;14.00;99.90
52943;DHT22;38809;53.300;6.614;2023-08-06T00:49:02;14.00;99.90
52943;DHT22;38809;53.300;6.614;2023-08-06T00:51:28;14.00;99.90
52943;DHT22;38809;53.300;6.614;2023-08-06T00:53:54;14.00;99.90
52943;DHT22;38809;53.300;6.614;2023-08-06T00:56:21;13.90;99.90
52943;DHT22;38809;53.300;6.614;2023-08-06T00:58:47;14.00;99.90
52943;DHT22;38809;53.300;6.614;2023-08-06T01:01:12;13.90;99.90
52943;DHT22;38809;53.300;6.614;2023-08-06T01:03:39;14.00;99.90
52943;DHT22;38809;53.300;6.614;2023-08-06T01:06:04;13.90;99.90
52943;DHT22;38809;53.300;6.614;2023-08-06T01:11:44;14.00;99.90
52943;DHT22;38809;53.300;6.614;2023-08-06T01:14:47;14.00;99.90
52943;DHT22;38809;53.300;6.614;2023-08-06T01:17:15;14.10;99.90
52943;DHT22;38809;53.300;6.614;2023-08-06T01:19:41;14.00;99.90
52943;DHT22;38809;53.300;6.614;2023-08-06T01:22:07;14.00;99.90
52943;DHT22;38809;53.300;6.614;2023-08-06T01:24:33;14.00;99.90
52943;DHT22;38809;53.300;6.614;2023-08-06T01:27:13;14.00;99.90
52943;DHT22;38809;53.300;6.614;2023-08-06T01:29:48;13.90;99.90
52943;DHT22;38809;53.300;6.614;2023-08-06T01:32:18;13.90;99.90
52943;DHT22;38809;53.300;6.614;2023-08-06T01:34:47;14.00;99.90
52943;DHT22;38809;53.300;6.614;2023-08-06T01:37:14;14.00;99.90
52943;DHT22;38809;53.300;6.614;2023-08-06T01:39:42;14.00;99.90
52943;DHT22;38809;53.300;6.614;2023-08-06T01:42:08;14.00;99.90
52943;DHT22;38809;53.300;6.614;2023-08-06T01:44:34;14.00;99.90
52943;DHT22;38809;53.300;6.614;2023-08-06T01:47:00;14.00;99.90
52943;DHT22;38809;53.300;6.614;2023-08-06T01:49:25;13.90;99.90
52943;DHT22;38809;53.300;6.614;2023-08-06T01:51:51;13.90;99.90
52943;DHT22;38809;53.300;6.614;2023-08-06T01:54:17;13.90;99.90
52943;DHT22;38809;53.300;6.614;2023-08-06T01:56:42;13.80;99.90
52943;DHT22;38809;53.300;6.614;2023-08-06T01:59:08;13.80;99.90
52943;DHT22;38809;53.300;6.614;2023-08-06T02:01:34;13.80;99.90
52943;DHT22;38809;53.300;6.614;2023-08-06T02:03:59;13.70;99.90
52943;DHT22;38809;53.300;6.614;2023-08-06T02:06:25;13.80;99.90
52943;DHT22;38809;53.300;6.614;2023-08-06T02:08:51;13.70;99.90
52943;DHT22;38809;53.300;6.614;2023-08-06T02:11:16;13.70;99.90
52943;DHT22;38809;53.300;6.614;2023-08-06T02:13:42;13.70;99.90
52943;DHT22;38809;53.300;6.614;2023-08-06T02:16:07;13.60;99.90
52943;DHT22;38809;53.300;6.614;2023-08-06T02:18:34;13.70;99.90
52943;DHT22;38809;53.300;6.614;2023-08-06T02:21:00;13.70;99.90
52943;DHT22;38809;53.300;6.614;2023-08-06T02:23:26;13.70;99.90
52943;DHT22;38809;53.300;6.614;2023-08-06T02:26:02;13.60;99.90
52943;DHT22;38809;53.300;6.614;2023-08-06T02:28:29;13.60;99.90
52943;DHT22;38809;53.300;6.614;2023-08-06T02:30:55;13.70;99.90
52943;DHT22;38809;53.300;6.614;2023-08-06T02:33:20;13.60;99.90
52943;DHT22;38809;53.300;6.614;2023-08-06T02:35:46;13.70;99.90
52943;DHT22;38809;53.300;6.614;2023-08-06T02:38:12;13.80;99.90
52943;DHT22;38809;53.300;6.614;2023-08-06T02:40:46;13.80;99.90
52943;DHT22;38809;53.300;6.614;2023-08-06T02:43:12;13.80;99.90
52943;DHT22;38809;53.300;6.614;2023-08-06T02:45:38;13.70;99.90
52943;DHT22;38809;53.300;6.614;2023-08-06T02:48:04;13.70;99.90
52943;DHT22;38809;53.300;6.614;2023-08-06T02:50:29;13.80;99.90
52943;DHT22;38809;53.300;6.614;2023-08-06T02:52:55;13.80;99.90
52943;DHT22;38809;53.300;6.614;2023-08-06T02:55:21;13.70;99.90
52943;DHT22;38809;53.300;6.614;2023-08-06T02:57:46;13.70;99.90
52943;DHT22;38809;53.300;6.614;2023-08-06T03:00:12;13.70;99.90
52943;DHT22;38809;53.300;6.614;2023-08-06T03:02:38;13.70;99.90
52943;DHT22;38809;53.300;6.614;2023-08-06T03:05:04;13.60;99.90
52943;DHT22;38809;53.300;6.614;2023-08-06T03:07:31;13.60;99.90
52943;DHT22;38809;53.300;6.614;2023-08-06T03:09:59;13.70;99.90
52943;DHT22;38809;53.300;6.614;2023-08-06T03:12:27;13.70;99.90
52943;DHT22;38809;53.300;6.614;2023-08-06T03:14:52;13.70;99.90
52943;DHT22;38809;53.300;6.614;2023-08-06T03:17:18;13.80;99.90
52943;DHT22;38809;53.300;6.614;2023-08-06T03:19:44;13.70;99.90
52943;DHT22;38809;53.300;6.614;2023-08-06T03:22:09;13.70;99.90
52943;DHT22;38809;53.300;6.614;2023-08-06T03:24:35;13.70;99.90
52943;DHT22;38809;53.300;6.614;2023-08-06T03:27:01;13.70;99.90
52943;DHT22;38809;53.300;6.614;2023-08-06T03:29:27;13.70;99.90
52943;DHT22;38809;53.300;6.614;2023-08-06T03:31:53;13.70;99.90
52943;DHT22;38809;53.300;6.614;2023-08-06T03:34:18;14.10;99.90
52943;DHT22;38809;53.300;6.614;2023-08-06T03:36:44;13.50;99.90
52943;DHT22;38809;53.300;6.614;2023-08-06T03:39:10;13.60;99.90
52943;DHT22;38809;53.300;6.614;2023-08-06T03:41:36;13.50;99.90
52943;DHT22;38809;53.300;6.614;2023-08-06T03:44:01;13.60;99.90
52943;DHT22;38809;53.300;6.614;2023-08-06T03:46:29;13.60;99.90
52943;DHT22;38809;53.300;6.614;2023-08-06T03:48:57;13.50;99.90
52943;DHT22;38809;53.300;6.614;2023-08-06T03:51:23;13.50;99.90
52943;DHT22;38809;53.300;6.614;2023-08-06T03:53:49;13.50;99.90
52943;DHT22;38809;53.300;6.614;2023-08-06T03:56:14;13.60;99.90
52943;DHT22;38809;53.300;6.614;2023-08-06T03:58:40;13.60;99.90
52943;DHT22;38809;53.300;6.614;2023-08-06T04:01:06;13.70;99.90
52943;DHT22;38809;53.300;6.614;2023-08-06T04:03:31;13.70;99.90
52943;DHT22;38809;53.300;6.614;2023-08-06T04:05:57;13.70;99.90
52943;DHT22;38809;53.300;6.614;2023-08-06T04:08:23;13.70;99.90
52943;DHT22;38809;53.300;6.614;2023-08-06T04:10:52;13.70;99.90
52943;DHT22;38809;53.300;6.614;2023-08-06T04:13:18;13.70;99.90
52943;DHT22;38809;53.300;6.614;2023-08-06T04:15:44;13.70;99.90
52943;DHT22;38809;53.300;6.614;2023-08-06T04:18:10;13.70;99.90
52943;DHT22;38809;53.300;6.614;2023-08-06T04:20:45;13.70;99.90
52943;DHT22;38809;53.300;6.614;2023-08-06T04:23:11;13.70;99.90
52943;DHT22;38809;53.300;6.614;2023-08-06T04:25:37;13.60;99.90
52943;DHT22;38809;53.300;6.614;2023-08-06T04:28:03;13.60;99.90
52943;DHT22;38809;53.300;6.614;2023-08-06T04:30:29;13.60;99.90
52943;DHT22;38809;53.300;6.614;2023-08-06T04:32:56;13.60;99.90
52943;DHT22;38809;53.300;6.614;2023-08-06T04:35:23;13.60;99.90
52943;DHT22;38809;53.300;6.614;2023-08-06T04:37:48;13.50;99.90
52943;DHT22;38809;53.300;6.614;2023-08-06T04:40:14;13.50;99.90
52943;DHT22;38809;53.300;6.614;2023-08-06T04:42:40;13.50;99.90
52943;DHT22;38809;53.300;6.614;2023-08-06T04:45:06;13.60;99.90
52943;DHT22;38809;53.300;6.614;2023-08-06T04:47:32;13.60;99.90
52943;DHT22;38809;53.300;6.614;2023-08-06T04:49:57;13.70;99.90
52943;DHT22;38809;53.300;6.614;2023-08-06T04:52:23;13.70;99.90
52943;DHT22;38809;53.300;6.614;2023-08-06T04:54:53;13.80;99.90
52943;DHT22;38809;53.300;6.614;2023-08-06T04:57:18;13.90;99.90
52943;DHT22;38809;53.300;6.614;2023-08-06T04:59:44;13.90;99.90
52943;DHT22;38809;53.300;6.614;2023-08-06T05:02:10;14.00;99.90
52943;DHT22;38809;53.300;6.614;2023-08-06T05:04:35;14.00;99.90
52943;DHT22;38809;53.300;6.614;2023-08-06T05:07:01;14.00;99.90
52943;DHT22;38809;53.300;6.614;2023-08-06T05:09:27;13.90;99.90
52943;DHT22;38809;53.300;6.614;2023-08-06T05:11:52;14.00;99.90
52943;DHT22;38809;53.300;6.614;2023-08-06T05:14:18;14.00;99.90
52943;DHT22;38809;53.300;6.614;2023-08-06T05:16:44;14.00;99.90
52943;DHT22;38809;53.300;6.614;2023-08-06T05:19:09;14.00;99.90
52943;DHT22;38809;53.300;6.614;2023-08-06T05:21:35;14.00;99.90
52943;DHT22;38809;53.300;6.614;2023-08-06T05:24:00;14.00;99.90
52943;DHT22;38809;53.300;6.614;2023-08-06T05:26:26;14.00;99.90
52943;DHT22;38809;53.300;6.614;2023-08-06T05:28:52;14.00;99.90
52943;DHT22;38809;53.300;6.614;2023-08-06T05:31:18;14.00;99.90
52943;DHT22;38809;53.300;6.614;2023-08-06T05:33:43;14.00;99.90
52943;DHT22;38809;53.300;6.614;2023-08-06T05:36:09;14.00;99.90
52943;DHT22;38809;53.300;6.614;2023-08-06T05:38:35;14.00;99.90
52943;DHT22;38809;53.300;6.614;2023-08-06T05:41:00;14.10;99.90
52943;DHT22;38809;53.300;6.614;2023-08-06T05:43:26;14.10;99.90
52943;DHT22;38809;53.300;6.614;2023-08-06T05:45:52;14.20;99.90
52943;DHT22;38809;53.300;6.614;2023-08-06T05:48:17;14.20;99.90
52943;DHT22;38809;53.300;6.614;2023-08-06T05:50:43;14.20;99.90
52943;DHT22;38809;53.300;6.614;2023-08-06T05:53:09;14.30;99.90
52943;DHT22;38809;53.300;6.614;2023-08-06T05:55:35;14.40;99.90
52943;DHT22;38809;53.300;6.614;2023-08-06T05:58:01;14.40;99.90
52943;DHT22;38809;53.300;6.614;2023-08-06T06:00:27;14.50;99.90
52943;DHT22;38809;53.300;6.614;2023-08-06T06:02:52;14.60;99.90
52943;DHT22;38809;53.300;6.614;2023-08-06T06:05:18;14.80;99.90
52943;DHT22;38809;53.300;6.614;2023-08-06T06:07:44;14.80;99.90
52943;DHT22;38809;53.300;6.614;2023-08-06T06:10:09;14.90;99.90
52943;DHT22;38809;53.300;6.614;2023-08-06T06:12:35;15.00;99.90
52943;DHT22;38809;53.300;6.614;2023-08-06T06:15:01;15.00;99.90
52943;DHT22;38809;53.300;6.614;2023-08-06T06:17:27;15.10;99.90
52943;DHT22;38809;53.300;6.614;2023-08-06T06:19:53;15.10;99.90
52943;DHT22;38809;53.300;6.614;2023-08-06T06:22:18;15.20;99.90
52943;DHT22;38809;53.300;6.614;2023-08-06T06:24:44;15.30;99.90
52943;DHT22;38809;53.300;6.614;2023-08-06T06:27:10;15.30;99.90
52943;DHT22;38809;53.300;6.614;2023-08-06T06:29:35;15.40;99.90
52943;DHT22;38809;53.300;6.614;2023-08-06T06:32:01;15.30;99.90
52943;DHT22;38809;53.300;6.614;2023-08-06T06:34:27;15.40;99.90
52943;DHT22;38809;53.300;6.614;2023-08-06T06:36:53;15.50;99.90
52943;DHT22;38809;53.300;6.614;2023-08-06T06:39:18;15.60;99.90
52943;DHT22;38809;53.300;6.614;2023-08-06T06:41:44;15.60;99.90
52943;DHT22;38809;53.300;6.614;2023-08-06T06:44:10;15.80;99.90
52943;DHT22;38809;53.300;6.614;2023-08-06T06:46:36;15.80;99.90
52943;DHT22;38809;53.300;6.614;2023-08-06T06:49:01;15.80;99.90
52943;DHT22;38809;53.300;6.614;2023-08-06T06:51:27;15.90;99.90
52943;DHT22;38809;53.300;6.614;2023-08-06T06:53:53;16.10;99.90
52943;DHT22;38809;53.300;6.614;2023-08-06T06:56:18;16.20;99.90
52943;DHT22;38809;53.300;6.614;2023-08-06T06:58:44;16.40;99.90
52943;DHT22;38809;53.300;6.614;2023-08-06T07:01:10;16.30;99.90
52943;DHT22;38809;53.300;6.614;2023-08-06T07:03:37;16.50;99.90
52943;DHT22;38809;53.300;6.614;2023-08-06T07:06:03;16.60;99.90
52943;DHT22;38809;53.300;6.614;2023-08-06T07:08:29;16.70;99.90
52943;DHT22;38809;53.300;6.614;2023-08-06T07:11:06;16.70;99.90
52943;DHT22;38809;53.300;6.614;2023-08-06T07:13:32;16.60;99.90
52943;DHT22;38809;53.300;6.614;2023-08-06T07:15:58;16.70;99.90
52943;DHT22;38809;53.300;6.614;2023-08-06T07:18:24;16.50;99.90
52943;DHT22;38809;53.300;6.614;2023-08-06T07:20:54;16.60;99.90
52943;DHT22;38809;53.300;6.614;2023-08-06T07:23:21;16.70;99.90
52943;DHT22;38809;53.300;6.614;2023-08-06T07:25:48;16.90;99.90
52943;DHT22;38809;53.300;6.614;2023-08-06T07:28:14;16.80;99.90
52943;DHT22;38809;53.300;6.614;2023-08-06T07:30:41;16.80;99.90
52943;DHT22;38809;53.300;6.614;2023-08-06T07:33:07;16.70;99.90
52943;DHT22;38809;53.300;6.614;2023-08-06T07:35:33;16.80;99.90
52943;DHT22;38809;53.300;6.614;2023-08-06T07:37:59;16.90;99.90
52943;DHT22;38809;53.300;6.614;2023-08-06T07:40:25;17.20;99.90
52943;DHT22;38809;53.300;6.614;2023-08-06T07:42:50;17.20;99.90
52943;DHT22;38809;53.300;6.614;2023-08-06T07:45:16;17.30;99.90
52943;DHT22;38809;53.300;6.614;2023-08-06T07:47:42;17.50;99.90
52943;DHT22;38809;53.300;6.614;2023-08-06T07:50:09;17.50;99.90
52943;DHT22;38809;53.300;6.614;2023-08-06T07:52:34;17.50;99.90
52943;DHT22;38809;53.300;6.614;2023-08-06T07:55:01;17.50;99.90
52943;DHT22;38809;53.300;6.614;2023-08-06T07:57:33;17.40;99.90
52943;DHT22;38809;53.300;6.614;2023-08-06T08:00:00;17.80;99.90
52943;DHT22;38809;53.300;6.614;2023-08-06T08:02:26;17.70;99.90
52943;DHT22;38809;53.300;6.614;2023-08-06T08:04:51;17.70;99.90
52943;DHT22;38809;53.300;6.614;2023-08-06T08:07:18;17.80;99.90
52943;DHT22;38809;53.300;6.614;2023-08-06T08:09:44;17.80;99.90
52943;DHT22;38809;53.300;6.614;2023-08-06T08:12:10;17.80;99.90
52943;DHT22;38809;53.300;6.614;2023-08-06T08:14:35;17.90;99.90
52943;DHT22;38809;53.300;6.614;2023-08-06T08:17:05;17.70;99.90
52943;DHT22;38809;53.300;6.614;2023-08-06T08:19:34;17.70;99.90
52943;DHT22;38809;53.300;6.614;2023-08-06T08:22:00;17.80;99.90
52943;DHT22;38809;53.300;6.614;2023-08-06T08:24:26;17.90;99.90
52943;DHT22;38809;53.300;6.614;2023-08-06T08:26:52;17.70;99.90
52943;DHT22;38809;53.300;6.614;2023-08-06T08:29:22;17.90;99.90
52943;DHT22;38809;53.300;6.614;2023-08-06T08:31:48;18.10;99.90
52943;DHT22;38809;53.300;6.614;2023-08-06T08:34:17;18.20;99.90
52943;DHT22;38809;53.300;6.614;2023-08-06T08:36:43;18.10;99.90
52943;DHT22;38809;53.300;6.614;2023-08-06T08:39:09;18.20;99.90
52943;DHT22;38809;53.300;6.614;2023-08-06T08:41:37;18.50;99.90
52943;DHT22;38809;53.300;6.614;2023-08-06T08:44:07;18.40;99.90
52943;DHT22;38809;53.300;6.614;2023-08-06T08:46:35;18.50;99.90
52943;DHT22;38809;53.300;6.614;2023-08-06T08:49:02;18.60;99.90
52943;DHT22;38809;53.300;6.614;2023-08-06T08:51:28;18.50;99.90
52943;DHT22;38809;53.300;6.614;2023-08-06T08:53:55;18.50;99.90
52943;DHT22;38809;53.300;6.614;2023-08-06T08:56:25;18.60;99.90
52943;DHT22;38809;53.300;6.614;2023-08-06T08:58:51;18.60;99.90
52943;DHT22;38809;53.300;6.614;2023-08-06T09:01:21;18.70;99.90
52943;DHT22;38809;53.300;6.614;2023-08-06T09:03:48;18.40;99.90
52943;DHT22;38809;53.300;6.614;2023-08-06T09:06:14;18.70;99.90
52943;DHT22;38809;53.300;6.614;2023-08-06T09:09:09;18.70;99.90
52943;DHT22;38809;53.300;6.614;2023-08-06T09:11:44;18.80;99.90
52943;DHT22;38809;53.300;6.614;2023-08-06T09:14:11;18.70;99.90
52943;DHT22;38809;53.300;6.614;2023-08-06T09:16:37;18.70;99.90
52943;DHT22;38809;53.300;6.614;2023-08-06T09:19:10;18.90;99.90
52943;DHT22;38809;53.300;6.614;2023-08-06T09:21:38;19.10;99.90
52943;DHT22;38809;53.300;6.614;2023-08-06T09:24:12;18.80;99.90
52943;DHT22;38809;53.300;6.614;2023-08-06T09:26:42;18.80;99.90
52943;DHT22;38809;53.300;6.614;2023-08-06T09:29:09;19.00;99.90
52943;DHT22;38809;53.300;6.614;2023-08-06T09:34:31;19.10;99.90
52943;DHT22;38809;53.300;6.614;2023-08-06T09:36:56;19.30;99.90
52943;DHT22;38809;53.300;6.614;2023-08-06T09:39:27;19.20;99.90
52943;DHT22;38809;53.300;6.614;2023-08-06T09:41:57;19.10;99.90
52943;DHT22;38809;53.300;6.614;2023-08-06T09:44:25;19.10;99.90
52943;DHT22;38809;53.300;6.614;2023-08-06T09:46:53;19.20;99.90
52943;DHT22;38809;53.300;6.614;2023-08-06T09:49:20;19.30;99.90
52943;DHT22;38809;53.300;6.614;2023-08-06T09:51:47;19.30;99.90
52943;DHT22;38809;53.300;6.614;2023-08-06T09:54:16;19.50;99.90
52943;DHT22;38809;53.300;6.614;2023-08-06T09:56:42;19.70;99.90
52943;DHT22;38809;53.300;6.614;2023-08-06T09:59:08;19.80;99.90
52943;DHT22;38809;53.300;6.614;2023-08-06T10:01:35;19.80;99.90
52943;DHT22;38809;53.300;6.614;2023-08-06T10:04:06;19.70;99.90
52943;DHT22;38809;53.300;6.614;2023-08-06T10:06:36;19.80;99.90
52943;DHT22;38809;53.300;6.614;2023-08-06T10:09:02;19.60;99.90
52943;DHT22;38809;53.300;6.614;2023-08-06T10:11:29;19.70;99.90
52943;DHT22;38809;53.300;6.614;2023-08-06T10:14:00;20.00;99.90
52943;DHT22;38809;53.300;6.614;2023-08-06T10:16:29;19.80;99.90
52943;DHT22;38809;53.300;6.614;2023-08-06T10:18:55;19.70;99.90
52943;DHT22;38809;53.300;6.614;2023-08-06T10:21:23;19.70;99.90
52943;DHT22;38809;53.300;6.614;2023-08-06T10:23:54;19.30;99.90
52943;DHT22;38809;53.300;6.614;2023-08-06T10:26:20;20.00;99.90
52943;DHT22;38809;53.300;6.614;2023-08-06T10:28:46;19.70;99.90
52943;DHT22;38809;53.300;6.614;2023-08-06T10:31:11;19.70;99.90
52943;DHT22;38809;53.300;6.614;2023-08-06T10:33:45;19.80;99.90
52943;DHT22;38809;53.300;6.614;2023-08-06T10:36:12;19.80;99.90
52943;DHT22;38809;53.300;6.614;2023-08-06T10:38:45;20.20;99.90
52943;DHT22;38809;53.300;6.614;2023-08-06T10:41:22;20.00;99.90
52943;DHT22;38809;53.300;6.614;2023-08-06T10:43:48;20.10;99.90
52943;DHT22;38809;53.300;6.614;2023-08-06T10:46:28;20.10;99.90
52943;DHT22;38809;53.300;6.614;2023-08-06T10:48:54;20.00;99.90
52943;DHT22;38809;53.300;6.614;2023-08-06T10:51:19;20.10;99.90
52943;DHT22;38809;53.300;6.614;2023-08-06T10:53:47;20.10;99.90
52943;DHT22;38809;53.300;6.614;2023-08-06T10:56:14;20.20;99.90
52943;DHT22;38809;53.300;6.614;2023-08-06T10:58:40;20.10;99.90
52943;DHT22;38809;53.300;6.614;2023-08-06T11:01:06;19.90;99.90
52943;DHT22;38809;53.300;6.614;2023-08-06T11:03:33;20.10;99.90
52943;DHT22;38809;53.300;6.614;2023-08-06T11:06:00;20.30;99.90
52943;DHT22;38809;53.300;6.614;2023-08-06T11:08:26;20.30;99.90
52943;DHT22;38809;53.300;6.614;2023-08-06T11:10:52;20.10;99.90
52943;DHT22;38809;53.300;6.614;2023-08-06T11:13:18;20.30;99.90
52943;DHT22;38809;53.300;6.614;2023-08-06T11:15:45;20.40;99.90
52943;DHT22;38809;53.300;6.614;2023-08-06T11:18:11;20.00;99.90
52943;DHT22;38809;53.300;6.614;2023-08-06T11:20:37;20.30;99.90
52943;DHT22;38809;53.300;6.614;2023-08-06T11:23:03;20.60;99.90
52943;DHT22;38809;53.300;6.614;2023-08-06T11:25:30;20.40;99.90
52943;DHT22;38809;53.300;6.614;2023-08-06T11:27:55;20.40;99.90
52943;DHT22;38809;53.300;6.614;2023-08-06T11:30:21;20.50;99.90
52943;DHT22;38809;53.300;6.614;2023-08-06T11:32:47;20.40;99.90
52943;DHT22;38809;53.300;6.614;2023-08-06T11:35:14;20.40;99.90
52943;DHT22;38809;53.300;6.614;2023-08-06T11:37:43;20.50;99.90
52943;DHT22;38809;53.300;6.614;2023-08-06T11:40:09;20.10;99.90
52943;DHT22;38809;53.300;6.614;2023-08-06T11:42:36;20.10;99.90
52943;DHT22;38809;53.300;6.614;2023-08-06T11:45:03;20.40;99.90
52943;DHT22;38809;53.300;6.614;2023-08-06T11:47:30;20.50;99.90
52943;DHT22;38809;53.300;6.614;2023-08-06T11:49:56;20.60;99.90
52943;DHT22;38809;53.300;6.614;2023-08-06T11:52:23;19.80;99.90
52943;DHT22;38809;53.300;6.614;2023-08-06T11:55:06;20.30;99.90
52943;DHT22;38809;53.300;6.614;2023-08-06T11:57:34;20.40;99.90
52943;DHT22;38809;53.300;6.614;2023-08-06T12:00:12;20.60;99.90
52943;DHT22;38809;53.300;6.614;2023-08-06T12:02:42;20.60;99.90
52943;DHT22;38809;53.300;6.614;2023-08-06T12:05:16;20.80;99.90
52943;DHT22;38809;53.300;6.614;2023-08-06T12:07:46;20.70;99.90
52943;DHT22;38809;53.300;6.614;2023-08-06T12:10:13;20.70;99.90
52943;DHT22;38809;53.300;6.614;2023-08-06T12:12:39;20.60;99.90
52943;DHT22;38809;53.300;6.614;2023-08-06T12:15:06;20.50;99.90
52943;DHT22;38809;53.300;6.614;2023-08-06T12:17:33;20.40;99.90
52943;DHT22;38809;53.300;6.614;2023-08-06T12:19:58;20.30;99.90
52943;DHT22;38809;53.300;6.614;2023-08-06T12:22:24;20.20;99.90
52943;DHT22;38809;53.300;6.614;2023-08-06T12:24:50;20.30;99.90
52943;DHT22;38809;53.300;6.614;2023-08-06T12:27:16;20.10;99.90
52943;DHT22;38809;53.300;6.614;2023-08-06T12:29:49;20.50;99.90
52943;DHT22;38809;53.300;6.614;2023-08-06T12:32:15;20.60;99.90
52943;DHT22;38809;53.300;6.614;2023-08-06T12:34:41;20.70;99.90
52943;DHT22;38809;53.300;6.614;2023-08-06T12:37:07;20.30;99.90
52943;DHT22;38809;53.300;6.614;2023-08-06T12:39:34;20.60;99.90
52943;DHT22;38809;53.300;6.614;2023-08-06T12:42:02;20.50;99.90
52943;DHT22;38809;53.300;6.614;2023-08-06T12:44:28;20.50;99.90
52943;DHT22;38809;53.300;6.614;2023-08-06T12:46:54;20.60;99.90
52943;DHT22;38809;53.300;6.614;2023-08-06T12:49:20;21.10;99.90
52943;DHT22;38809;53.300;6.614;2023-08-06T12:51:47;20.70;99.90
52943;DHT22;38809;53.300;6.614;2023-08-06T12:54:13;20.70;99.90
52943;DHT22;38809;53.300;6.614;2023-08-06T12:56:39;20.50;99.90
52943;DHT22;38809;53.300;6.614;2023-08-06T12:59:04;20.40;99.90
52943;DHT22;38809;53.300;6.614;2023-08-06T13:01:30;20.60;99.90
52943;DHT22;38809;53.300;6.614;2023-08-06T13:03:56;20.60;99.90
52943;DHT22;38809;53.300;6.614;2023-08-06T13:06:21;20.50;99.90
52943;DHT22;38809;53.300;6.614;2023-08-06T13:08:47;20.60;99.90
52943;DHT22;38809;53.300;6.614;2023-08-06T13:11:13;20.50;99.90
52943;DHT22;38809;53.300;6.614;2023-08-06T13:13:38;20.30;99.90
52943;DHT22;38809;53.300;6.614;2023-08-06T13:16:04;20.40;99.90
52943;DHT22;38809;53.300;6.614;2023-08-06T13:18:30;20.30;99.90
52943;DHT22;38809;53.300;6.614;2023-08-06T13:20:56;20.50;99.90
52943;DHT22;38809;53.300;6.614;2023-08-06T13:23:22;20.50;99.90
52943;DHT22;38809;53.300;6.614;2023-08-06T13:25:48;20.30;99.90
52943;DHT22;38809;53.300;6.614;2023-08-06T13:28:13;19.90;99.90
52943;DHT22;38809;53.300;6.614;2023-08-06T13:30:40;20.00;99.90
52943;DHT22;38809;53.300;6.614;2023-08-06T13:33:08;20.20;99.90
52943;DHT22;38809;53.300;6.614;2023-08-06T13:35:34;20.50;99.90
52943;DHT22;38809;53.300;6.614;2023-08-06T13:37:59;20.70;99.90
52943;DHT22;38809;53.300;6.614;2023-08-06T13:40:28;20.30;99.90
52943;DHT22;38809;53.300;6.614;2023-08-06T13:42:55;20.50;99.90
52943;DHT22;38809;53.300;6.614;2023-08-06T13:45:21;20.10;99.90
52943;DHT22;38809;53.300;6.614;2023-08-06T13:47:47;20.00;99.90
52943;DHT22;38809;53.300;6.614;2023-08-06T13:50:13;19.70;99.90
52943;DHT22;38809;53.300;6.614;2023-08-06T13:52:39;19.80;99.90
52943;DHT22;38809;53.300;6.614;2023-08-06T13:55:05;19.70;99.90
52943;DHT22;38809;53.300;6.614;2023-08-06T13:57:31;19.60;99.90
52943;DHT22;38809;53.300;6.614;2023-08-06T13:59:57;19.90;99.90
52943;DHT22;38809;53.300;6.614;2023-08-06T14:02:23;20.10;99.90
52943;DHT22;38809;53.300;6.614;2023-08-06T14:04:49;20.30;99.90
52943;DHT22;38809;53.300;6.614;2023-08-06T14:07:15;20.50;99.90
52943;DHT22;38809;53.300;6.614;2023-08-06T14:09:40;20.50;99.90
52943;DHT22;38809;53.300;6.614;2023-08-06T14:12:07;20.40;99.90
52943;DHT22;38809;53.300;6.614;2023-08-06T14:14:33;20.30;99.90
52943;DHT22;38809;53.300;6.614;2023-08-06T14:16:59;20.30;99.90
52943;DHT22;38809;53.300;6.614;2023-08-06T14:19:25;20.20;99.90
52943;DHT22;38809;53.300;6.614;2023-08-06T14:21:50;20.40;99.90
52943;DHT22;38809;53.300;6.614;2023-08-06T14:24:16;20.40;99.90
52943;DHT22;38809;53.300;6.614;2023-08-06T14:26:42;20.40;99.90
52943;DHT22;38809;53.300;6.614;2023-08-06T14:29:07;20.10;99.90
52943;DHT22;38809;53.300;6.614;2023-08-06T14:31:33;19.90;99.90
52943;DHT22;38809;53.300;6.614;2023-08-06T14:33:59;20.00;99.90
52943;DHT22;38809;53.300;6.614;2023-08-06T14:36:26;20.00;99.90
52943;DHT22;38809;53.300;6.614;2023-08-06T14:38:51;20.10;99.90
52943;DHT22;38809;53.300;6.614;2023-08-06T14:41:17;20.00;99.90
52943;DHT22;38809;53.300;6.614;2023-08-06T14:43:43;19.80;99.90
52943;DHT22;38809;53.300;6.614;2023-08-06T14:46:08;19.90;99.90
52943;DHT22;38809;53.300;6.614;2023-08-06T14:48:34;19.90;99.90
52943;DHT22;38809;53.300;6.614;2023-08-06T14:51:01;19.80;99.90
52943;DHT22;38809;53.300;6.614;2023-08-06T14:53:26;20.10;99.90
52943;DHT22;38809;53.300;6.614;2023-08-06T14:55:52;19.90;99.90
52943;DHT22;38809;53.300;6.614;2023-08-06T14:58:19;19.90;99.90
52943;DHT22;38809;53.300;6.614;2023-08-06T15:00:45;20.50;99.90
52943;DHT22;38809;53.300;6.614;2023-08-06T15:03:11;20.00;99.90
52943;DHT22;38809;53.300;6.614;2023-08-06T15:05:37;20.00;99.90
52943;DHT22;38809;53.300;6.614;2023-08-06T15:08:03;20.30;99.90
52943;DHT22;38809;53.300;6.614;2023-08-06T15:10:28;20.10;99.90
52943;DHT22;38809;53.300;6.614;2023-08-06T15:12:54;19.70;99.90
52943;DHT22;38809;53.300;6.614;2023-08-06T15:15:20;19.70;99.90
52943;DHT22;38809;53.300;6.614;2023-08-06T15:17:47;19.70;99.90
52943;DHT22;38809;53.300;6.614;2023-08-06T15:20:13;19.70;99.90
52943;DHT22;38809;53.300;6.614;2023-08-06T15:22:39;19.80;99.90
52943;DHT22;38809;53.300;6.614;2023-08-06T15:25:05;19.70;99.90
52943;DHT22;38809;53.300;6.614;2023-08-06T15:27:31;19.60;99.90
52943;DHT22;38809;53.300;6.614;2023-08-06T15:29:58;19.50;99.90
52943;DHT22;38809;53.300;6.614;2023-08-06T15:32:23;19.60;99.90